Terminal Aerodrome Forecast
Issued by NWS

Home | Current Version | Previous Version | Text Only | Print | Product List | Glossary On
Versions: 1 2 3 4 5 6 7 8 9 10 11 12
075
FTUS42 TJSJ 291139
TAFJMZ
TAF
TJMZ 291139Z 2912/3012 00000KT P6SM FEW030 SCT060
     FM291430 08005KT P6SM SCT025 BKN040
     FM291730 28010KT P6SM VCTS FEW022CB BKN040
     FM292330 08005KT P6SM FEW030 SCT050 SCT120=

USA.gov is the U.S. government's official web portal to all federal, state and local government web resources and services.